SUAA    
 012200Z 18012KT 9999 BKN015 OVC200 21/18 Q1009   
 SUCA    
 012200Z 18015KT 9999 FEW010 SCT030 BKN080 22/16 Q1010  
 SUDU    
 011600Z VRB04KT 9999 BKN026 BKN200 32/20 Q1006   
 SULS    
 020000Z 21009KT 5000 BKN004 OVC010 20/18 Q1009   
 SUMU    
 020000Z 19015KT 9999 OVC011 20/18 Q1010 NOSIG   
 SUSO    
 012200Z 20016KT 9999 BKN017 BKN100 24/17 Q1008   
 SABE    
 020000Z 15007KT 110V200 CAVOK 22/14 Q1012 NOSIG RMK PP000 
 SACO    
 020000Z 15009KT CAVOK 23/10 Q1015 NOSIG RMK PP000  
 SADF    
 020000Z 16008KT CAVOK 22/15 Q1011 RMK PP000   
 SAEZ    
 020000Z 16006KT CAVOK 20/14 Q1012 NOSIG RMK PP000  
 SAWG    
 020000Z 20006KT 180V240 CAVOK 16/04 Q0991    
 SAZB    
 290547Z 05009KT 7000 RA NSC 19/18 Q1008   
 SAZM    
 020100Z 27003KT CAVOK 02/00 Q1017     
 SBPA    
 020000Z 11006KT 9999 VCTS FEW040CB SCT100 25/22 Q1006  
 SGAS    
 020000Z VRB03KT CAVOK 25/23 Q1008     
 SGES    
 020000Z 21008KT 9999 TS BKN030 FEW040CB 25/20 Q1007  
 SCCI    
 020000Z 30027KT 9999 BKN030 11/05 Q0987 NOSIG   
 SCRM    
 020000Z 30022KT 8000 BKN035 M00/M02 Q0970 NOSIG